sensor_id;sensor_type;location;lat;lon;timestamp;temperature;humidity
6373;DHT22;3219;51.362;7.074;2023-07-24T00:02:13;18.60;99.90
6373;DHT22;3219;51.362;7.074;2023-07-24T00:04:40;18.50;99.90
6373;DHT22;3219;51.362;7.074;2023-07-24T00:07:08;18.50;99.90
6373;DHT22;3219;51.362;7.074;2023-07-24T00:09:35;18.50;99.90
6373;DHT22;3219;51.362;7.074;2023-07-24T00:12:01;18.50;99.90
6373;DHT22;3219;51.362;7.074;2023-07-24T00:19:23;18.30;99.90
6373;DHT22;3219;51.362;7.074;2023-07-24T00:21:49;18.50;99.90
6373;DHT22;3219;51.362;7.074;2023-07-24T00:24:17;18.50;99.90
6373;DHT22;3219;51.362;7.074;2023-07-24T00:36:36;18.30;99.90
6373;DHT22;3219;51.362;7.074;2023-07-24T00:39:03;18.50;99.90
6373;DHT22;3219;51.362;7.074;2023-07-24T00:41:32;18.50;99.90
6373;DHT22;3219;51.362;7.074;2023-07-24T00:43:59;18.50;99.90
6373;DHT22;3219;51.362;7.074;2023-07-24T00:46:26;18.40;99.90
6373;DHT22;3219;51.362;7.074;2023-07-24T00:48:55;18.40;99.90
6373;DHT22;3219;51.362;7.074;2023-07-24T02:52:57;18.20;99.90
6373;DHT22;3219;51.362;7.074;2023-07-24T05:26:22;18.40;99.90
6373;DHT22;3219;51.362;7.074;2023-07-24T05:28:50;18.40;99.90
6373;DHT22;3219;51.362;7.074;2023-07-24T05:31:18;18.40;99.90
6373;DHT22;3219;51.362;7.074;2023-07-24T05:33:44;18.40;99.90
6373;DHT22;3219;51.362;7.074;2023-07-24T05:36:11;18.40;99.90
6373;DHT22;3219;51.362;7.074;2023-07-24T05:38:38;18.40;99.90
6373;DHT22;3219;51.362;7.074;2023-07-24T05:41:05;18.00;99.90
6373;DHT22;3219;51.362;7.074;2023-07-24T14:49:49;20.60;99.90
6373;DHT22;3219;51.362;7.074;2023-07-24T14:52:15;20.60;99.90
6373;DHT22;3219;51.362;7.074;2023-07-24T14:54:43;20.50;99.90
6373;DHT22;3219;51.362;7.074;2023-07-24T14:57:10;20.50;99.90
6373;DHT22;3219;51.362;7.074;2023-07-24T14:59:37;20.50;99.90
6373;DHT22;3219;51.362;7.074;2023-07-24T15:02:04;20.40;99.90
6373;DHT22;3219;51.362;7.074;2023-07-24T15:04:33;20.40;99.90
6373;DHT22;3219;51.362;7.074;2023-07-24T15:07:00;20.30;99.90
6373;DHT22;3219;51.362;7.074;2023-07-24T15:09:26;20.40;99.90
6373;DHT22;3219;51.362;7.074;2023-07-24T15:11:56;20.10;99.90
6373;DHT22;3219;51.362;7.074;2023-07-24T15:14:23;20.20;99.90
6373;DHT22;3219;51.362;7.074;2023-07-24T15:16:51;20.50;99.90
6373;DHT22;3219;51.362;7.074;2023-07-24T15:19:18;20.40;99.90
6373;DHT22;3219;51.362;7.074;2023-07-24T15:21:44;20.50;99.90
6373;DHT22;3219;51.362;7.074;2023-07-24T15:24:11;20.50;99.90
6373;DHT22;3219;51.362;7.074;2023-07-24T15:26:40;20.60;99.90
6373;DHT22;3219;51.362;7.074;2023-07-24T15:29:10;20.70;99.90
6373;DHT22;3219;51.362;7.074;2023-07-24T15:31:38;20.60;99.90
6373;DHT22;3219;51.362;7.074;2023-07-24T15:34:06;20.80;99.90
6373;DHT22;3219;51.362;7.074;2023-07-24T15:36:34;20.90;99.90
6373;DHT22;3219;51.362;7.074;2023-07-24T15:39:01;20.80;99.90
6373;DHT22;3219;51.362;7.074;2023-07-24T15:41:29;21.00;99.90
6373;DHT22;3219;51.362;7.074;2023-07-24T15:43:58;20.60;99.90
6373;DHT22;3219;51.362;7.074;2023-07-24T15:46:28;20.50;99.90
6373;DHT22;3219;51.362;7.074;2023-07-24T15:48:59;20.50;99.90
6373;DHT22;3219;51.362;7.074;2023-07-24T15:51:28;20.60;99.90
6373;DHT22;3219;51.362;7.074;2023-07-24T15:53:59;20.70;99.90
6373;DHT22;3219;51.362;7.074;2023-07-24T15:56:30;20.90;99.90
6373;DHT22;3219;51.362;7.074;2023-07-24T15:58:58;21.10;99.90
6373;DHT22;3219;51.362;7.074;2023-07-24T16:01:31;20.80;99.90
6373;DHT22;3219;51.362;7.074;2023-07-24T16:04:00;20.70;99.90
6373;DHT22;3219;51.362;7.074;2023-07-24T16:06:29;20.70;99.90
6373;DHT22;3219;51.362;7.074;2023-07-24T16:08:58;20.60;99.90
6373;DHT22;3219;51.362;7.074;2023-07-24T16:11:28;20.50;99.90
6373;DHT22;3219;51.362;7.074;2023-07-24T16:13:58;20.20;99.90
6373;DHT22;3219;51.362;7.074;2023-07-24T16:16:27;20.10;99.90
6373;DHT22;3219;51.362;7.074;2023-07-24T16:19:17;19.90;99.90
6373;DHT22;3219;51.362;7.074;2023-07-24T16:21:47;19.90;99.90
6373;DHT22;3219;51.362;7.074;2023-07-24T16:24:17;19.90;99.90
6373;DHT22;3219;51.362;7.074;2023-07-24T16:26:48;19.80;99.90
6373;DHT22;3219;51.362;7.074;2023-07-24T16:29:18;19.70;99.90
6373;DHT22;3219;51.362;7.074;2023-07-24T16:31:47;19.70;99.90
6373;DHT22;3219;51.362;7.074;2023-07-24T16:34:18;19.50;99.90
6373;DHT22;3219;51.362;7.074;2023-07-24T16:36:47;19.70;99.90
6373;DHT22;3219;51.362;7.074;2023-07-24T16:39:18;19.70;99.90
6373;DHT22;3219;51.362;7.074;2023-07-24T16:44:17;19.50;99.90
6373;DHT22;3219;51.362;7.074;2023-07-24T16:46:46;19.40;99.90
6373;DHT22;3219;51.362;7.074;2023-07-24T16:51:46;19.30;99.90
6373;DHT22;3219;51.362;7.074;2023-07-24T16:54:15;19.40;99.90
6373;DHT22;3219;51.362;7.074;2023-07-24T16:56:44;19.40;99.90
6373;DHT22;3219;51.362;7.074;2023-07-24T16:59:13;19.30;99.90
6373;DHT22;3219;51.362;7.074;2023-07-24T17:01:42;19.40;99.90
6373;DHT22;3219;51.362;7.074;2023-07-24T17:04:11;19.20;99.90
6373;DHT22;3219;51.362;7.074;2023-07-24T17:06:40;19.30;99.90
6373;DHT22;3219;51.362;7.074;2023-07-24T17:09:12;19.00;99.90
6373;DHT22;3219;51.362;7.074;2023-07-24T17:14:10;18.90;99.90
6373;DHT22;3219;51.362;7.074;2023-07-24T17:19:11;18.90;99.90
6373;DHT22;3219;51.362;7.074;2023-07-24T17:24:11;18.70;99.90
6373;DHT22;3219;51.362;7.074;2023-07-24T17:26:40;18.70;99.90
6373;DHT22;3219;51.362;7.074;2023-07-24T17:29:09;18.60;99.90
6373;DHT22;3219;51.362;7.074;2023-07-24T17:31:38;18.20;99.90
6373;DHT22;3219;51.362;7.074;2023-07-24T17:34:10;18.50;99.90
6373;DHT22;3219;51.362;7.074;2023-07-24T17:36:39;18.50;99.90
6373;DHT22;3219;51.362;7.074;2023-07-24T17:39:08;18.40;99.90
6373;DHT22;3219;51.362;7.074;2023-07-24T17:44:07;18.30;99.90
6373;DHT22;3219;51.362;7.074;2023-07-24T17:46:36;18.00;99.90
6373;DHT22;3219;51.362;7.074;2023-07-24T17:49:05;18.50;99.90
6373;DHT22;3219;51.362;7.074;2023-07-24T17:51:34;18.00;99.90
6373;DHT22;3219;51.362;7.074;2023-07-24T17:54:03;18.10;99.90
6373;DHT22;3219;51.362;7.074;2023-07-24T17:59:03;17.90;99.90
6373;DHT22;3219;51.362;7.074;2023-07-24T18:01:32;17.90;99.90
6373;DHT22;3219;51.362;7.074;2023-07-24T18:04:02;17.70;99.90
6373;DHT22;3219;51.362;7.074;2023-07-24T18:06:31;17.70;99.90
6373;DHT22;3219;51.362;7.074;2023-07-24T18:09:00;17.70;99.90
6373;DHT22;3219;51.362;7.074;2023-07-24T18:11:30;17.50;99.90
6373;DHT22;3219;51.362;7.074;2023-07-24T18:14:00;17.80;99.90
6373;DHT22;3219;51.362;7.074;2023-07-24T18:16:29;17.80;99.90
6373;DHT22;3219;51.362;7.074;2023-07-24T18:18:58;18.40;99.90
6373;DHT22;3219;51.362;7.074;2023-07-24T18:21:27;17.60;99.90
